Terminal Aerodrome Forecast
Issued by NWS Grand Forks, ND

Home | Current Version | Previous Version | Graphics & Text | Print | Product List | Glossary On
Versions: 1 2 3 4 5 6 7 8 9 10 11 12 13 14 15 16 17 18 19
818
FTUS43 KFGF 222333
TAFFAR
TAF
KFAR 222333Z 2300/2324 36013KT P6SM SCT070
     FM230200 01010KT P6SM BKN040
     FM230600 03012KT P6SM BKN020
      TEMPO 2307/2310 P6SM BKN015
     FM231600 06012KT P6SM BKN020=

USA.gov is the U.S. government's official web portal to all federal, state and local government web resources and services.